createdAt,value
2022-08-12T00:02:04.076Z,100804.28
2022-08-12T00:07:26.062Z,100809.84
2022-08-12T00:12:46.403Z,100815.75
2022-08-12T00:18:08.294Z,100813.28
2022-08-12T00:23:31.283Z,100820.53
2022-08-12T00:28:53.105Z,100819.97
2022-08-12T00:34:16.514Z,100820.25
2022-08-12T00:39:38.581Z,100821.16
2022-08-12T00:44:43.337Z,100812.59
2022-08-12T00:49:50.123Z,100816.19
2022-08-12T00:54:56.969Z,100816.44
2022-08-12T01:00:01.835Z,100819.91
2022-08-12T01:05:27.441Z,100815.59
2022-08-12T01:10:49.279Z,100804.69
2022-08-12T01:15:54.424Z,100813.84
2022-08-12T01:21:11.867Z,100812.88
2022-08-12T01:26:19.225Z,100808.94
2022-08-12T01:31:23.138Z,100805.03
2022-08-12T01:36:27.981Z,100804.38
2022-08-12T01:41:33.292Z,100805.78
2022-08-12T01:46:44.953Z,100801.34
2022-08-12T01:52:14.690Z,100807.06
2022-08-12T01:57:58.194Z,100792.97
2022-08-12T02:03:05.063Z,100803.56
2022-08-12T02:08:36.305Z,100805.25
2022-08-12T02:14:17.046Z,100815.66
2022-08-12T02:19:39.076Z,100820.91
2022-08-12T02:24:43.317Z,100809.50
2022-08-12T02:29:48.185Z,100802.88
2022-08-12T02:34:51.168Z,100813.69
2022-08-12T02:39:56.474Z,100808.69
2022-08-12T02:45:06.483Z,100818.44
2022-08-12T02:50:11.968Z,100812.38
2022-08-12T02:55:34.382Z,100813.09
2022-08-12T03:00:39.398Z,100814.06
2022-08-12T03:05:49.671Z,100825.97
2022-08-12T03:11:00.427Z,100814.16
2022-08-12T03:16:07.631Z,100809.59
2022-08-12T03:21:13.446Z,100806.69
2022-08-12T03:26:16.296Z,100812.25
2022-08-12T03:31:22.917Z,100803.56
2022-08-12T03:36:28.993Z,100806.53
2022-08-12T03:41:35.518Z,100809.22
2022-08-12T03:47:00.386Z,100821.19
2022-08-12T03:52:21.796Z,100814.03
2022-08-12T03:57:42.440Z,100815.44
2022-08-12T04:03:00.594Z,100816.53
2022-08-12T04:08:03.769Z,100808.88
2022-08-12T04:13:19.719Z,100816.75
2022-08-12T04:18:24.305Z,100819.38
2022-08-12T04:23:27.584Z,100811.44
2022-08-12T04:28:30.440Z,100814.03
2022-08-12T04:33:35.637Z,100810.00
2022-08-12T04:38:39.297Z,100808.47
2022-08-12T04:43:54.535Z,100811.53
2022-08-12T04:49:06.579Z,100810.47
2022-08-12T04:54:09.415Z,100815.00
2022-08-12T04:59:12.512Z,100811.13
2022-08-12T05:04:17.088Z,100811.69
2022-08-12T05:09:20.479Z,100816.81
2022-08-12T05:14:24.890Z,100818.78
2022-08-12T05:19:30.335Z,100815.50
2022-08-12T05:24:33.429Z,100823.16
2022-08-12T05:30:06.407Z,100817.50
2022-08-12T05:35:06.740Z,100816.91
2022-08-12T05:40:11.810Z,100822.34
2022-08-12T05:45:14.653Z,100819.97
2022-08-12T05:50:19.384Z,100822.78
2022-08-12T05:55:24.201Z,100822.63
2022-08-12T06:00:31.502Z,100834.03
2022-08-12T06:05:43.038Z,100835.22
2022-08-12T06:10:57.666Z,100833.31
2022-08-12T06:16:00.464Z,100831.78
2022-08-12T06:21:04.848Z,100831.91
2022-08-12T06:26:12.713Z,100834.53
2022-08-12T06:31:26.894Z,100833.97
2022-08-12T06:36:33.357Z,100843.09
2022-08-12T06:42:28.547Z,100849.19
2022-08-12T06:47:18.538Z,100846.25
2022-08-12T06:52:24.805Z,100839.91
2022-08-12T06:58:08.043Z,100846.28
2022-08-12T07:02:51.650Z,100839.59
2022-08-12T07:08:15.555Z,100847.50
2022-08-12T07:13:18.366Z,100851.22
2022-08-12T07:18:21.217Z,100851.06
2022-08-12T07:23:25.553Z,100857.41
2022-08-12T07:28:30.936Z,100855.84
2022-08-12T07:33:33.724Z,100855.44
2022-08-12T07:38:40.091Z,100855.84
2022-08-12T07:43:47.250Z,100857.19
2022-08-12T07:48:51.910Z,100847.94
2022-08-12T07:54:00.963Z,100847.56
2022-08-12T07:59:08.781Z,100851.94
2022-08-12T08:04:29.296Z,100853.34
2022-08-12T08:09:33.529Z,100853.66
2022-08-12T08:14:36.921Z,100850.59
2022-08-12T08:20:03.016Z,100848.78
2022-08-12T08:25:05.401Z,100847.03
2022-08-12T08:30:29.604Z,100851.63
2022-08-12T08:35:47.041Z,100838.16
2022-08-12T08:41:09.637Z,100840.34
2022-08-12T08:46:14.422Z,100840.63
2022-08-12T08:51:17.255Z,100843.03
2022-08-12T08:56:21.720Z,100833.66
2022-08-12T09:01:24.788Z,100826.69
2022-08-12T09:06:37.076Z,100832.09
2022-08-12T09:12:11.889Z,100823.25
2022-08-12T09:17:21.279Z,100812.38
2022-08-12T09:22:28.587Z,100803.53
2022-08-12T09:28:15.597Z,100813.78
2022-08-12T09:33:05.510Z,100804.28
2022-08-12T09:38:28.152Z,100809.94
2022-08-12T09:44:00.651Z,100804.88
2022-08-12T09:49:16.327Z,100795.69
2022-08-12T09:54:34.086Z,100795.34
2022-08-12T10:00:15.015Z,100793.00
2022-08-12T10:05:02.186Z,100789.09
2022-08-12T10:10:05.420Z,100787.38
2022-08-12T10:15:15.093Z,100791.19
2022-08-12T10:20:35.712Z,100778.00
2022-08-12T10:26:33.944Z,100769.94
2022-08-12T10:31:21.761Z,100769.69
2022-08-12T10:36:40.870Z,100763.47
2022-08-12T10:42:04.551Z,100747.22
2022-08-12T10:47:26.040Z,100754.00
2022-08-12T10:52:38.191Z,100752.09
2022-08-12T10:58:12.914Z,100738.00
2022-08-12T11:04:24.685Z,100732.31
2022-08-12T11:08:34.897Z,100723.38
2022-08-12T11:13:48.353Z,100721.31
2022-08-12T11:18:55.081Z,100697.84
2022-08-12T11:23:59.001Z,100705.47
2022-08-12T11:29:05.601Z,100698.97
2022-08-12T11:34:51.330Z,100692.34
2022-08-12T11:40:03.422Z,100688.72
2022-08-12T11:44:55.909Z,100683.97
2022-08-12T11:50:00.333Z,100684.47
2022-08-12T11:55:04.491Z,100672.53
2022-08-12T12:02:00.814Z,100665.00
2022-08-12T12:05:41.659Z,100657.09
2022-08-12T12:10:44.919Z,100649.69
2022-08-12T12:15:49.368Z,100646.53
2022-08-12T12:21:00.072Z,100639.13
2022-08-12T12:26:08.281Z,100645.16
2022-08-12T12:31:15.097Z,100634.56
2022-08-12T12:36:36.787Z,100628.91
2022-08-12T12:42:43.379Z,100624.22
2022-08-12T12:47:02.401Z,100636.22
2022-08-12T12:52:18.556Z,100619.38
2022-08-12T12:57:36.116Z,100612.38
2022-08-12T13:02:55.433Z,100617.28
2022-08-12T13:08:01.920Z,100614.72
2022-08-12T13:14:07.277Z,100611.50
2022-08-12T13:18:31.468Z,100603.53
2022-08-12T13:23:37.694Z,100606.44
2022-08-12T13:28:43.046Z,100616.22
2022-08-12T13:34:33.655Z,100611.16
2022-08-12T13:39:10.915Z,100597.09
2022-08-12T13:44:14.074Z,100595.91
2022-08-12T13:49:17.715Z,100596.56
2022-08-12T13:54:41.138Z,100592.72
2022-08-12T13:59:48.580Z,100589.34
2022-08-12T14:04:58.146Z,100584.25
2022-08-12T14:10:19.604Z,100578.31
2022-08-12T14:15:36.640Z,100562.56
2022-08-12T14:20:40.761Z,100563.38
2022-08-12T14:25:51.413Z,100567.84
2022-08-12T14:31:00.236Z,100564.94
2022-08-12T14:36:06.773Z,100560.84
2022-08-12T14:41:14.717Z,100570.94
2022-08-12T14:46:19.627Z,100560.34
2022-08-12T14:52:54.965Z,100557.28
2022-08-12T14:57:20.157Z,100557.97
2022-08-12T15:02:20.623Z,100549.75
2022-08-12T15:07:33.568Z,100547.88
2022-08-12T15:12:50.472Z,100549.69
2022-08-12T15:18:02.310Z,100547.44
2022-08-12T15:23:05.888Z,100546.47
2022-08-12T15:28:24.887Z,100543.63
2022-08-12T15:33:37.866Z,100540.34
2022-08-12T15:38:48.982Z,100541.63
2022-08-12T15:44:37.121Z,100549.69
2022-08-12T15:49:19.884Z,100542.81
2022-08-12T15:54:33.611Z,100543.88
2022-08-12T16:00:00.694Z,100545.03
2022-08-12T16:05:03.315Z,100550.09
2022-08-12T16:10:30.768Z,100536.47
2022-08-12T16:15:37.806Z,100535.28
2022-08-12T16:20:46.903Z,100533.84
2022-08-12T16:26:05.222Z,100533.34
2022-08-12T16:31:14.360Z,100530.84
2022-08-12T16:36:18.988Z,100514.13
2022-08-12T16:41:23.527Z,100516.59
2022-08-12T16:46:32.674Z,100512.53
2022-08-12T16:51:40.197Z,100500.38
2022-08-12T16:56:51.205Z,100507.09
2022-08-12T17:02:02.408Z,100506.72
2022-08-12T17:07:10.071Z,100497.53
2022-08-12T17:12:17.011Z,100497.44
2022-08-12T17:17:38.630Z,100488.97
2022-08-12T17:22:42.906Z,100489.44
2022-08-12T17:27:57.239Z,100492.13
2022-08-12T17:33:02.898Z,100488.13
2022-08-12T17:38:13.654Z,100486.47
2022-08-12T17:43:57.455Z,100485.66
2022-08-12T17:48:55.510Z,100494.88
2022-08-12T17:54:11.377Z,100500.03
2022-08-12T17:59:47.204Z,100503.59
2022-08-12T18:05:05.417Z,100508.28
2022-08-12T18:10:08.504Z,100521.97
2022-08-12T18:15:26.681Z,100520.97
2022-08-12T18:20:44.630Z,100525.00
2022-08-12T18:26:14.962Z,100530.03
2022-08-12T18:31:23.261Z,100530.47
2022-08-12T18:36:29.177Z,100521.88
2022-08-12T18:41:35.091Z,100535.50
2022-08-12T18:46:48.905Z,100535.88
2022-08-12T18:52:04.498Z,100546.38
2022-08-12T18:57:16.532Z,100541.72
2022-08-12T19:02:23.394Z,100546.16
2022-08-12T19:07:29.708Z,100553.06
2022-08-12T19:13:09.421Z,100547.31
2022-08-12T19:18:13.558Z,100553.38
2022-08-12T19:23:20.942Z,100561.31
2022-08-12T19:28:29.960Z,100565.00
2022-08-12T19:33:37.368Z,100559.22
2022-08-12T19:38:46.940Z,100561.34
2022-08-12T19:44:18.467Z,100564.38
2022-08-12T19:49:23.382Z,100563.59
2022-08-12T19:54:30.423Z,100574.19
2022-08-12T19:59:43.297Z,100571.91
2022-08-12T20:06:03.576Z,100569.56
2022-08-12T20:10:36.209Z,100582.31
2022-08-12T20:15:43.235Z,100579.59
2022-08-12T20:20:48.122Z,100588.94
2022-08-12T20:26:01.879Z,100588.31
2022-08-12T20:31:07.094Z,100594.69
2022-08-12T20:36:39.977Z,100602.72
2022-08-12T20:41:36.794Z,100596.59
2022-08-12T20:46:39.703Z,100601.44
2022-08-12T20:51:55.424Z,100602.09
2022-08-12T20:57:00.982Z,100604.81
2022-08-12T21:02:04.710Z,100600.13
2022-08-12T21:07:10.348Z,100595.28
2022-08-12T21:12:28.222Z,100601.59
2022-08-12T21:18:00.700Z,100608.09
2022-08-12T21:23:05.723Z,100607.22
2022-08-12T21:28:10.344Z,100609.28
2022-08-12T21:33:16.955Z,100612.38
2022-08-12T21:38:19.921Z,100614.03
2022-08-12T21:43:29.069Z,100619.06
2022-08-12T21:48:48.350Z,100622.22
2022-08-12T21:54:07.583Z,100625.53
2022-08-12T21:59:14.734Z,100619.16
2022-08-12T22:04:35.960Z,100624.19
2022-08-12T22:09:42.857Z,100621.16
2022-08-12T22:14:47.800Z,100627.84
2022-08-12T22:19:50.771Z,100629.47
2022-08-12T22:24:53.798Z,100634.22
2022-08-12T22:30:20.397Z,100628.50
2022-08-12T22:35:56.663Z,100627.16
2022-08-12T22:40:58.363Z,100617.03
2022-08-12T22:46:23.516Z,100614.00
2022-08-12T22:52:00.606Z,100616.34
2022-08-12T22:56:57.748Z,100626.25
2022-08-12T23:02:07.583Z,100624.13
2022-08-12T23:07:14.317Z,100620.94
2022-08-12T23:12:46.565Z,100617.09
2022-08-12T23:17:51.251Z,100616.44
2022-08-12T23:23:02.899Z,100617.22
2022-08-12T23:28:30.955Z,100618.41
2022-08-12T23:33:59.965Z,100613.44
2022-08-12T23:39:02.007Z,100613.75
2022-08-12T23:44:07.007Z,100611.19
2022-08-12T23:49:26.765Z,100608.94
2022-08-12T23:54:43.985Z,100604.44
2022-08-12T23:59:55.689Z,100602.69
